sensor_id;sensor_type;location;lat;lon;timestamp;P1;durP1;ratioP1;P2;durP2;ratioP2
59938;SDS011;45801;51.810;19.444;2023-03-13T00:00:51;11.70;;;6.10;;
59938;SDS011;45801;51.810;19.444;2023-03-13T00:03:19;13.70;;;6.60;;
59938;SDS011;45801;51.810;19.444;2023-03-13T00:05:46;12.80;;;6.00;;
59938;SDS011;45801;51.810;19.444;2023-03-13T00:08:12;12.20;;;6.70;;
59938;SDS011;45801;51.810;19.444;2023-03-13T00:10:39;12.70;;;6.40;;
59938;SDS011;45801;51.810;19.444;2023-03-13T00:13:07;12.60;;;6.60;;
59938;SDS011;45801;51.810;19.444;2023-03-13T00:15:34;11.00;;;6.00;;
59938;SDS011;45801;51.810;19.444;2023-03-13T00:18:01;12.50;;;6.50;;
59938;SDS011;45801;51.810;19.444;2023-03-13T00:20:28;15.20;;;7.40;;
59938;SDS011;45801;51.810;19.444;2023-03-13T00:22:55;13.70;;;7.40;;
59938;SDS011;45801;51.810;19.444;2023-03-13T00:25:21;13.30;;;6.40;;
59938;SDS011;45801;51.810;19.444;2023-03-13T00:27:48;14.10;;;7.60;;
59938;SDS011;45801;51.810;19.444;2023-03-13T00:30:15;13.20;;;6.40;;
59938;SDS011;45801;51.810;19.444;2023-03-13T00:32:42;12.00;;;7.00;;
59938;SDS011;45801;51.810;19.444;2023-03-13T00:35:14;13.20;;;6.90;;
59938;SDS011;45801;51.810;19.444;2023-03-13T00:37:41;12.20;;;6.50;;
59938;SDS011;45801;51.810;19.444;2023-03-13T00:40:08;13.70;;;6.70;;
59938;SDS011;45801;51.810;19.444;2023-03-13T00:42:35;12.70;;;6.60;;
59938;SDS011;45801;51.810;19.444;2023-03-13T00:45:02;11.80;;;6.50;;
59938;SDS011;45801;51.810;19.444;2023-03-13T00:47:29;12.80;;;6.30;;
59938;SDS011;45801;51.810;19.444;2023-03-13T00:49:55;13.40;;;7.20;;
59938;SDS011;45801;51.810;19.444;2023-03-13T00:52:22;14.90;;;7.20;;
59938;SDS011;45801;51.810;19.444;2023-03-13T00:54:50;11.10;;;6.60;;
59938;SDS011;45801;51.810;19.444;2023-03-13T00:57:16;14.60;;;7.50;;
59938;SDS011;45801;51.810;19.444;2023-03-13T00:59:42;13.50;;;7.30;;
59938;SDS011;45801;51.810;19.444;2023-03-13T01:02:09;10.90;;;6.00;;
59938;SDS011;45801;51.810;19.444;2023-03-13T01:04:35;12.40;;;6.80;;
59938;SDS011;45801;51.810;19.444;2023-03-13T01:07:02;12.60;;;6.40;;
59938;SDS011;45801;51.810;19.444;2023-03-13T01:09:28;11.20;;;6.00;;
59938;SDS011;45801;51.810;19.444;2023-03-13T01:11:55;13.30;;;6.70;;
59938;SDS011;45801;51.810;19.444;2023-03-13T01:14:21;11.90;;;6.10;;
59938;SDS011;45801;51.810;19.444;2023-03-13T01:16:48;10.60;;;6.50;;
59938;SDS011;45801;51.810;19.444;2023-03-13T01:19:14;15.90;;;6.70;;
59938;SDS011;45801;51.810;19.444;2023-03-13T01:21:42;9.00;;;5.40;;
59938;SDS011;45801;51.810;19.444;2023-03-13T01:24:10;11.10;;;5.90;;
59938;SDS011;45801;51.810;19.444;2023-03-13T01:26:37;11.60;;;6.20;;
59938;SDS011;45801;51.810;19.444;2023-03-13T01:29:03;12.70;;;6.70;;
59938;SDS011;45801;51.810;19.444;2023-03-13T01:31:31;12.60;;;6.40;;
59938;SDS011;45801;51.810;19.444;2023-03-13T01:34:00;11.40;;;6.90;;
59938;SDS011;45801;51.810;19.444;2023-03-13T01:36:30;10.50;;;5.70;;
59938;SDS011;45801;51.810;19.444;2023-03-13T01:38:57;10.30;;;5.60;;
59938;SDS011;45801;51.810;19.444;2023-03-13T01:41:25;11.90;;;5.80;;
59938;SDS011;45801;51.810;19.444;2023-03-13T01:43:54;11.50;;;6.50;;
59938;SDS011;45801;51.810;19.444;2023-03-13T01:54:10;10.80;;;6.40;;
59938;SDS011;45801;51.810;19.444;2023-03-13T01:56:46;12.40;;;7.60;;
59938;SDS011;45801;51.810;19.444;2023-03-13T01:59:18;11.00;;;6.30;;
59938;SDS011;45801;51.810;19.444;2023-03-13T02:01:54;12.40;;;6.10;;
59938;SDS011;45801;51.810;19.444;2023-03-13T02:04:26;10.60;;;5.90;;
59938;SDS011;45801;51.810;19.444;2023-03-13T02:06:57;11.30;;;7.30;;
59938;SDS011;45801;51.810;19.444;2023-03-13T02:09:28;12.30;;;7.00;;
59938;SDS011;45801;51.810;19.444;2023-03-13T02:12:01;10.60;;;6.00;;
59938;SDS011;45801;51.810;19.444;2023-03-13T02:14:32;9.10;;;5.50;;
59938;SDS011;45801;51.810;19.444;2023-03-13T02:17:03;11.10;;;6.50;;
59938;SDS011;45801;51.810;19.444;2023-03-13T02:19:42;9.10;;;4.60;;
59938;SDS011;45801;51.810;19.444;2023-03-13T02:27:42;12.20;;;6.90;;
59938;SDS011;45801;51.810;19.444;2023-03-13T02:30:13;12.10;;;7.00;;
59938;SDS011;45801;51.810;19.444;2023-03-13T02:32:40;10.90;;;6.60;;
59938;SDS011;45801;51.810;19.444;2023-03-13T02:35:08;13.60;;;6.70;;
59938;SDS011;45801;51.810;19.444;2023-03-13T02:37:40;10.70;;;6.80;;
59938;SDS011;45801;51.810;19.444;2023-03-13T02:40:09;11.50;;;6.60;;
59938;SDS011;45801;51.810;19.444;2023-03-13T02:42:42;11.20;;;6.80;;
59938;SDS011;45801;51.810;19.444;2023-03-13T02:45:14;12.80;;;6.60;;
59938;SDS011;45801;51.810;19.444;2023-03-13T02:47:43;11.90;;;7.00;;
59938;SDS011;45801;51.810;19.444;2023-03-13T02:50:10;11.70;;;7.40;;
59938;SDS011;45801;51.810;19.444;2023-03-13T02:52:47;11.70;;;7.00;;
59938;SDS011;45801;51.810;19.444;2023-03-13T02:55:20;13.10;;;6.90;;
59938;SDS011;45801;51.810;19.444;2023-03-13T02:57:52;12.10;;;7.10;;
59938;SDS011;45801;51.810;19.444;2023-03-13T03:00:19;12.70;;;7.00;;
59938;SDS011;45801;51.810;19.444;2023-03-13T03:02:46;10.20;;;5.70;;
59938;SDS011;45801;51.810;19.444;2023-03-13T03:05:12;11.70;;;6.00;;
59938;SDS011;45801;51.810;19.444;2023-03-13T03:07:38;10.70;;;6.40;;
59938;SDS011;45801;51.810;19.444;2023-03-13T03:10:05;12.20;;;6.90;;
59938;SDS011;45801;51.810;19.444;2023-03-13T03:12:32;12.00;;;5.90;;
59938;SDS011;45801;51.810;19.444;2023-03-13T03:14:59;10.90;;;6.10;;
59938;SDS011;45801;51.810;19.444;2023-03-13T03:17:25;12.30;;;6.30;;
59938;SDS011;45801;51.810;19.444;2023-03-13T03:19:51;11.10;;;6.40;;
59938;SDS011;45801;51.810;19.444;2023-03-13T03:22:18;11.00;;;6.00;;
59938;SDS011;45801;51.810;19.444;2023-03-13T03:24:44;12.30;;;6.90;;
59938;SDS011;45801;51.810;19.444;2023-03-13T03:27:11;9.20;;;4.50;;
59938;SDS011;45801;51.810;19.444;2023-03-13T03:29:38;11.50;;;5.70;;
59938;SDS011;45801;51.810;19.444;2023-03-13T03:32:05;11.50;;;6.30;;
59938;SDS011;45801;51.810;19.444;2023-03-13T03:34:32;11.60;;;6.60;;
59938;SDS011;45801;51.810;19.444;2023-03-13T03:36:58;10.70;;;6.20;;
59938;SDS011;45801;51.810;19.444;2023-03-13T03:39:25;11.10;;;6.10;;
59938;SDS011;45801;51.810;19.444;2023-03-13T03:41:51;11.70;;;5.60;;
59938;SDS011;45801;51.810;19.444;2023-03-13T03:44:18;12.90;;;6.50;;
59938;SDS011;45801;51.810;19.444;2023-03-13T03:46:44;12.30;;;6.70;;
59938;SDS011;45801;51.810;19.444;2023-03-13T03:49:10;11.80;;;6.00;;
59938;SDS011;45801;51.810;19.444;2023-03-13T03:51:37;12.40;;;6.90;;
59938;SDS011;45801;51.810;19.444;2023-03-13T03:54:03;12.00;;;6.60;;
59938;SDS011;45801;51.810;19.444;2023-03-13T03:56:30;11.60;;;6.90;;
59938;SDS011;45801;51.810;19.444;2023-03-13T03:58:57;10.80;;;6.00;;
59938;SDS011;45801;51.810;19.444;2023-03-13T04:01:23;12.00;;;6.60;;
59938;SDS011;45801;51.810;19.444;2023-03-13T04:03:49;10.80;;;6.20;;
59938;SDS011;45801;51.810;19.444;2023-03-13T04:06:16;10.70;;;6.80;;
59938;SDS011;45801;51.810;19.444;2023-03-13T04:08:42;10.80;;;6.30;;
59938;SDS011;45801;51.810;19.444;2023-03-13T04:11:10;11.90;;;6.70;;
59938;SDS011;45801;51.810;19.444;2023-03-13T04:13:36;11.50;;;6.50;;
59938;SDS011;45801;51.810;19.444;2023-03-13T04:16:06;11.30;;;6.20;;
59938;SDS011;45801;51.810;19.444;2023-03-13T04:18:34;10.30;;;6.00;;
59938;SDS011;45801;51.810;19.444;2023-03-13T04:21:01;11.40;;;5.90;;
59938;SDS011;45801;51.810;19.444;2023-03-13T04:23:28;10.50;;;6.00;;
59938;SDS011;45801;51.810;19.444;2023-03-13T04:25:54;12.00;;;6.10;;
59938;SDS011;45801;51.810;19.444;2023-03-13T04:28:21;10.90;;;6.30;;
59938;SDS011;45801;51.810;19.444;2023-03-13T04:30:47;10.40;;;5.70;;
59938;SDS011;45801;51.810;19.444;2023-03-13T04:33:15;9.10;;;4.60;;
59938;SDS011;45801;51.810;19.444;2023-03-13T04:35:41;10.90;;;5.60;;
59938;SDS011;45801;51.810;19.444;2023-03-13T04:38:07;11.30;;;6.80;;
59938;SDS011;45801;51.810;19.444;2023-03-13T04:40:34;10.00;;;5.50;;
59938;SDS011;45801;51.810;19.444;2023-03-13T04:43:03;12.90;;;6.60;;
59938;SDS011;45801;51.810;19.444;2023-03-13T04:45:29;11.50;;;6.00;;
59938;SDS011;45801;51.810;19.444;2023-03-13T04:47:56;10.50;;;5.80;;
59938;SDS011;45801;51.810;19.444;2023-03-13T04:50:22;10.30;;;5.50;;
59938;SDS011;45801;51.810;19.444;2023-03-13T04:52:49;12.60;;;6.50;;
59938;SDS011;45801;51.810;19.444;2023-03-13T04:55:17;11.20;;;6.10;;
59938;SDS011;45801;51.810;19.444;2023-03-13T04:57:44;11.20;;;6.80;;
59938;SDS011;45801;51.810;19.444;2023-03-13T05:00:10;11.70;;;6.20;;
59938;SDS011;45801;51.810;19.444;2023-03-13T05:02:37;9.80;;;5.60;;
59938;SDS011;45801;51.810;19.444;2023-03-13T05:05:04;10.50;;;6.30;;
59938;SDS011;45801;51.810;19.444;2023-03-13T05:07:31;12.50;;;7.10;;
59938;SDS011;45801;51.810;19.444;2023-03-13T05:09:57;12.90;;;7.40;;
59938;SDS011;45801;51.810;19.444;2023-03-13T05:12:24;8.60;;;4.70;;
59938;SDS011;45801;51.810;19.444;2023-03-13T05:14:51;11.80;;;6.20;;
59938;SDS011;45801;51.810;19.444;2023-03-13T05:17:19;10.70;;;6.40;;
59938;SDS011;45801;51.810;19.444;2023-03-13T05:19:45;10.50;;;6.40;;
59938;SDS011;45801;51.810;19.444;2023-03-13T05:22:12;9.30;;;5.50;;
59938;SDS011;45801;51.810;19.444;2023-03-13T05:24:38;12.00;;;6.10;;
59938;SDS011;45801;51.810;19.444;2023-03-13T05:27:04;12.30;;;6.30;;
59938;SDS011;45801;51.810;19.444;2023-03-13T05:29:31;10.10;;;5.90;;
59938;SDS011;45801;51.810;19.444;2023-03-13T05:31:57;11.00;;;6.40;;
59938;SDS011;45801;51.810;19.444;2023-03-13T05:34:24;10.50;;;5.60;;
59938;SDS011;45801;51.810;19.444;2023-03-13T05:36:51;10.40;;;6.10;;
59938;SDS011;45801;51.810;19.444;2023-03-13T05:39:18;10.40;;;6.20;;
59938;SDS011;45801;51.810;19.444;2023-03-13T05:41:44;14.00;;;6.60;;
59938;SDS011;45801;51.810;19.444;2023-03-13T05:44:11;10.70;;;5.70;;
59938;SDS011;45801;51.810;19.444;2023-03-13T05:46:37;12.10;;;6.70;;
59938;SDS011;45801;51.810;19.444;2023-03-13T05:49:04;11.70;;;6.20;;
59938;SDS011;45801;51.810;19.444;2023-03-13T05:51:30;11.30;;;6.70;;
59938;SDS011;45801;51.810;19.444;2023-03-13T05:53:57;11.10;;;6.20;;
59938;SDS011;45801;51.810;19.444;2023-03-13T05:56:23;12.70;;;6.30;;
59938;SDS011;45801;51.810;19.444;2023-03-13T05:58:50;11.80;;;6.50;;
59938;SDS011;45801;51.810;19.444;2023-03-13T06:01:16;12.60;;;6.70;;
59938;SDS011;45801;51.810;19.444;2023-03-13T06:03:43;10.40;;;6.40;;
59938;SDS011;45801;51.810;19.444;2023-03-13T06:06:09;12.70;;;7.00;;
59938;SDS011;45801;51.810;19.444;2023-03-13T06:08:36;11.40;;;6.60;;
59938;SDS011;45801;51.810;19.444;2023-03-13T06:11:02;11.60;;;5.90;;
59938;SDS011;45801;51.810;19.444;2023-03-13T06:13:29;11.70;;;5.90;;
59938;SDS011;45801;51.810;19.444;2023-03-13T06:15:56;13.60;;;6.60;;
59938;SDS011;45801;51.810;19.444;2023-03-13T06:18:24;14.10;;;6.50;;
59938;SDS011;45801;51.810;19.444;2023-03-13T06:21:02;11.50;;;6.10;;
59938;SDS011;45801;51.810;19.444;2023-03-13T06:23:29;12.40;;;6.80;;
59938;SDS011;45801;51.810;19.444;2023-03-13T06:25:55;10.50;;;5.50;;
59938;SDS011;45801;51.810;19.444;2023-03-13T06:28:22;12.10;;;6.30;;
59938;SDS011;45801;51.810;19.444;2023-03-13T06:30:48;12.90;;;7.10;;
59938;SDS011;45801;51.810;19.444;2023-03-13T06:33:15;11.40;;;7.40;;
59938;SDS011;45801;51.810;19.444;2023-03-13T06:35:42;13.80;;;7.40;;
59938;SDS011;45801;51.810;19.444;2023-03-13T06:38:09;13.40;;;7.40;;
59938;SDS011;45801;51.810;19.444;2023-03-13T06:40:37;12.80;;;7.10;;
59938;SDS011;45801;51.810;19.444;2023-03-13T06:43:03;12.50;;;6.90;;
59938;SDS011;45801;51.810;19.444;2023-03-13T06:45:30;11.10;;;5.80;;
59938;SDS011;45801;51.810;19.444;2023-03-13T06:47:56;11.80;;;7.90;;
59938;SDS011;45801;51.810;19.444;2023-03-13T06:50:23;13.70;;;6.80;;
59938;SDS011;45801;51.810;19.444;2023-03-13T06:52:50;12.60;;;6.90;;
59938;SDS011;45801;51.810;19.444;2023-03-13T06:55:18;9.70;;;6.10;;
59938;SDS011;45801;51.810;19.444;2023-03-13T06:57:48;12.80;;;6.30;;
59938;SDS011;45801;51.810;19.444;2023-03-13T07:00:18;10.80;;;5.90;;
59938;SDS011;45801;51.810;19.444;2023-03-13T07:02:45;13.30;;;6.20;;
59938;SDS011;45801;51.810;19.444;2023-03-13T07:05:23;11.90;;;6.20;;
59938;SDS011;45801;51.810;19.444;2023-03-13T07:07:49;10.50;;;5.30;;
59938;SDS011;45801;51.810;19.444;2023-03-13T07:10:15;12.90;;;7.50;;
59938;SDS011;45801;51.810;19.444;2023-03-13T07:12:42;13.20;;;8.10;;
59938;SDS011;45801;51.810;19.444;2023-03-13T07:15:09;13.40;;;7.40;;
59938;SDS011;45801;51.810;19.444;2023-03-13T07:17:36;13.40;;;7.70;;
59938;SDS011;45801;51.810;19.444;2023-03-13T07:20:03;14.10;;;7.90;;
59938;SDS011;45801;51.810;19.444;2023-03-13T07:22:31;12.00;;;6.30;;
59938;SDS011;45801;51.810;19.444;2023-03-13T07:24:58;14.10;;;7.20;;
59938;SDS011;45801;51.810;19.444;2023-03-13T07:27:24;13.80;;;7.90;;
59938;SDS011;45801;51.810;19.444;2023-03-13T07:29:51;12.50;;;7.00;;
59938;SDS011;45801;51.810;19.444;2023-03-13T07:32:17;12.50;;;6.50;;
59938;SDS011;45801;51.810;19.444;2023-03-13T07:34:44;14.80;;;8.20;;
59938;SDS011;45801;51.810;19.444;2023-03-13T07:37:11;12.00;;;7.20;;
59938;SDS011;45801;51.810;19.444;2023-03-13T07:39:37;13.70;;;7.80;;
59938;SDS011;45801;51.810;19.444;2023-03-13T07:42:16;12.60;;;7.50;;
59938;SDS011;45801;51.810;19.444;2023-03-13T07:44:42;11.20;;;6.00;;
59938;SDS011;45801;51.810;19.444;2023-03-13T07:47:09;13.20;;;6.90;;
59938;SDS011;45801;51.810;19.444;2023-03-13T07:49:35;11.40;;;7.30;;
59938;SDS011;45801;51.810;19.444;2023-03-13T07:52:06;11.80;;;7.10;;
59938;SDS011;45801;51.810;19.444;2023-03-13T07:54:32;12.60;;;6.30;;
59938;SDS011;45801;51.810;19.444;2023-03-13T07:57:00;11.20;;;6.30;;
59938;SDS011;45801;51.810;19.444;2023-03-13T07:59:27;11.50;;;7.00;;
59938;SDS011;45801;51.810;19.444;2023-03-13T08:01:54;11.50;;;6.70;;
59938;SDS011;45801;51.810;19.444;2023-03-13T08:04:21;12.30;;;7.20;;
59938;SDS011;45801;51.810;19.444;2023-03-13T08:06:47;11.90;;;7.30;;
59938;SDS011;45801;51.810;19.444;2023-03-13T08:09:14;13.60;;;7.60;;
59938;SDS011;45801;51.810;19.444;2023-03-13T08:11:40;12.80;;;7.00;;
59938;SDS011;45801;51.810;19.444;2023-03-13T08:14:07;13.80;;;7.30;;
59938;SDS011;45801;51.810;19.444;2023-03-13T08:16:34;12.50;;;7.30;;
59938;SDS011;45801;51.810;19.444;2023-03-13T08:19:02;14.50;;;6.60;;
59938;SDS011;45801;51.810;19.444;2023-03-13T08:21:31;11.50;;;6.40;;
59938;SDS011;45801;51.810;19.444;2023-03-13T08:24:01;12.60;;;7.00;;
59938;SDS011;45801;51.810;19.444;2023-03-13T08:26:31;10.50;;;6.40;;
59938;SDS011;45801;51.810;19.444;2023-03-13T08:28:59;12.10;;;6.80;;
59938;SDS011;45801;51.810;19.444;2023-03-13T08:31:31;11.40;;;6.50;;
59938;SDS011;45801;51.810;19.444;2023-03-13T08:34:09;14.60;;;6.30;;
59938;SDS011;45801;51.810;19.444;2023-03-13T08:36:37;11.00;;;7.00;;
59938;SDS011;45801;51.810;19.444;2023-03-13T08:39:06;10.90;;;6.30;;
59938;SDS011;45801;51.810;19.444;2023-03-13T08:41:38;13.10;;;6.60;;
59938;SDS011;45801;51.810;19.444;2023-03-13T08:44:06;10.90;;;5.70;;
59938;SDS011;45801;51.810;19.444;2023-03-13T08:46:35;12.80;;;7.00;;
59938;SDS011;45801;51.810;19.444;2023-03-13T08:49:03;10.90;;;6.70;;
59938;SDS011;45801;51.810;19.444;2023-03-13T08:51:31;12.00;;;6.70;;
59938;SDS011;45801;51.810;19.444;2023-03-13T08:53:59;13.30;;;6.80;;
59938;SDS011;45801;51.810;19.444;2023-03-13T08:56:27;11.60;;;6.80;;
59938;SDS011;45801;51.810;19.444;2023-03-13T08:58:56;11.60;;;6.30;;
59938;SDS011;45801;51.810;19.444;2023-03-13T09:01:29;11.50;;;5.70;;
59938;SDS011;45801;51.810;19.444;2023-03-13T09:03:58;12.40;;;6.60;;
59938;SDS011;45801;51.810;19.444;2023-03-13T09:06:25;10.50;;;6.00;;
59938;SDS011;45801;51.810;19.444;2023-03-13T09:08:51;11.60;;;6.00;;
59938;SDS011;45801;51.810;19.444;2023-03-13T09:11:19;12.10;;;6.30;;
59938;SDS011;45801;51.810;19.444;2023-03-13T09:13:47;11.70;;;6.50;;
59938;SDS011;45801;51.810;19.444;2023-03-13T09:16:19;11.60;;;6.00;;
59938;SDS011;45801;51.810;19.444;2023-03-13T09:18:47;12.00;;;5.60;;
59938;SDS011;45801;51.810;19.444;2023-03-13T09:21:15;12.10;;;6.20;;
59938;SDS011;45801;51.810;19.444;2023-03-13T09:23:49;12.30;;;5.80;;
59938;SDS011;45801;51.810;19.444;2023-03-13T09:26:17;12.00;;;6.10;;
59938;SDS011;45801;51.810;19.444;2023-03-13T09:28:45;12.90;;;5.50;;
59938;SDS011;45801;51.810;19.444;2023-03-13T09:31:12;11.60;;;5.60;;
59938;SDS011;45801;51.810;19.444;2023-03-13T09:33:41;11.50;;;5.70;;
59938;SDS011;45801;51.810;19.444;2023-03-13T09:36:09;11.90;;;5.40;;
59938;SDS011;45801;51.810;19.444;2023-03-13T09:38:36;13.80;;;6.40;;
59938;SDS011;45801;51.810;19.444;2023-03-13T09:46:32;12.20;;;5.60;;
59938;SDS011;45801;51.810;19.444;2023-03-13T09:49:14;10.80;;;5.40;;
59938;SDS011;45801;51.810;19.444;2023-03-13T09:51:52;13.10;;;5.70;;
59938;SDS011;45801;51.810;19.444;2023-03-13T09:55:00;12.70;;;5.10;;
59938;SDS011;45801;51.810;19.444;2023-03-13T09:57:34;14.70;;;5.90;;
59938;SDS011;45801;51.810;19.444;2023-03-13T10:00:07;13.60;;;5.90;;
59938;SDS011;45801;51.810;19.444;2023-03-13T10:05:30;13.60;;;5.40;;
59938;SDS011;45801;51.810;19.444;2023-03-13T10:13:33;12.80;;;6.20;;
59938;SDS011;45801;51.810;19.444;2023-03-13T10:16:14;11.60;;;4.60;;
59938;SDS011;45801;51.810;19.444;2023-03-13T10:18:48;13.70;;;5.00;;
59938;SDS011;45801;51.810;19.444;2023-03-13T10:21:21;15.20;;;5.30;;
59938;SDS011;45801;51.810;19.444;2023-03-13T10:23:58;10.50;;;4.20;;
59938;SDS011;45801;51.810;19.444;2023-03-13T10:26:34;13.80;;;5.40;;
59938;SDS011;45801;51.810;19.444;2023-03-13T10:31:38;13.10;;;4.80;;
59938;SDS011;45801;51.810;19.444;2023-03-13T10:34:08;15.40;;;5.40;;
59938;SDS011;45801;51.810;19.444;2023-03-13T10:36:47;10.70;;;4.90;;
59938;SDS011;45801;51.810;19.444;2023-03-13T10:39:16;10.80;;;4.10;;
59938;SDS011;45801;51.810;19.444;2023-03-13T10:41:47;13.60;;;4.00;;
59938;SDS011;45801;51.810;19.444;2023-03-13T10:44:15;8.70;;;3.60;;
59938;SDS011;45801;51.810;19.444;2023-03-13T10:46:45;13.00;;;4.30;;
59938;SDS011;45801;51.810;19.444;2023-03-13T10:49:16;9.80;;;3.80;;
59938;SDS011;45801;51.810;19.444;2023-03-13T10:51:49;9.60;;;3.70;;
59938;SDS011;45801;51.810;19.444;2023-03-13T10:54:38;10.80;;;4.20;;
59938;SDS011;45801;51.810;19.444;2023-03-13T10:57:09;12.40;;;;;
59938;SDS011;45801;51.810;19.444;2023-03-13T10:59:45;12.50;;;4.00;;
59938;SDS011;45801;51.810;19.444;2023-03-13T11:02:19;13.40;;;4.70;;
59938;SDS011;45801;51.810;19.444;2023-03-13T11:04:48;15.20;;;4.60;;
59938;SDS011;45801;51.810;19.444;2023-03-13T11:07:21;10.40;;;4.00;;
59938;SDS011;45801;51.810;19.444;2023-03-13T11:12:32;12.80;;;3.90;;
59938;SDS011;45801;51.810;19.444;2023-03-13T11:14:59;10.60;;;3.60;;
59938;SDS011;45801;51.810;19.444;2023-03-13T11:25:28;9.30;;;3.60;;
59938;SDS011;45801;51.810;19.444;2023-03-13T11:28:05;15.60;;;4.80;;
59938;SDS011;45801;51.810;19.444;2023-03-13T11:39:11;9.30;;;4.20;;
59938;SDS011;45801;51.810;19.444;2023-03-13T11:44:23;10.00;;;3.20;;
59938;SDS011;45801;51.810;19.444;2023-03-13T11:47:22;9.70;;;3.50;;
59938;SDS011;45801;51.810;19.444;2023-03-13T11:55:27;13.00;;;3.60;;
59938;SDS011;45801;51.810;19.444;2023-03-13T12:01:04;9.90;;;4.00;;
59938;SDS011;45801;51.810;19.444;2023-03-13T12:06:28;11.20;;;4.40;;
59938;SDS011;45801;51.810;19.444;2023-03-13T12:11:27;9.00;;;3.00;;
59938;SDS011;45801;51.810;19.444;2023-03-13T12:17:12;11.40;;;3.80;;
59938;SDS011;45801;51.810;19.444;2023-03-13T12:19:33;10.70;;;3.40;;
59938;SDS011;45801;51.810;19.444;2023-03-13T12:22:19;10.90;;;4.00;;
59938;SDS011;45801;51.810;19.444;2023-03-13T12:24:54;9.50;;;4.70;;
59938;SDS011;45801;51.810;19.444;2023-03-13T12:27:29;11.70;;;4.10;;
59938;SDS011;45801;51.810;19.444;2023-03-13T12:30:11;10.30;;;3.90;;
59938;SDS011;45801;51.810;19.444;2023-03-13T12:33:04;13.00;;;4.30;;
59938;SDS011;45801;51.810;19.444;2023-03-13T12:35:45;8.80;;;3.50;;
59938;SDS011;45801;51.810;19.444;2023-03-13T12:38:19;11.00;;;3.80;;
59938;SDS011;45801;51.810;19.444;2023-03-13T12:43:37;12.20;;;3.80;;
59938;SDS011;45801;51.810;19.444;2023-03-13T12:58:20;11.50;;;4.10;;
59938;SDS011;45801;51.810;19.444;2023-03-13T13:00:54;13.40;;;4.50;;
59938;SDS011;45801;51.810;19.444;2023-03-13T13:06:11;12.10;;;5.00;;
59938;SDS011;45801;51.810;19.444;2023-03-13T13:09:02;10.70;;;3.40;;
59938;SDS011;45801;51.810;19.444;2023-03-13T13:16:42;12.40;;;4.60;;
59938;SDS011;45801;51.810;19.444;2023-03-13T13:24:56;11.80;;;4.30;;
59938;SDS011;45801;51.810;19.444;2023-03-13T13:37:51;10.70;;;3.90;;
59938;SDS011;45801;51.810;19.444;2023-03-13T13:40:37;11.20;;;4.00;;
59938;SDS011;45801;51.810;19.444;2023-03-13T13:43:03;11.30;;;4.70;;
59938;SDS011;45801;51.810;19.444;2023-03-13T13:45:36;13.60;;;4.20;;
59938;SDS011;45801;51.810;19.444;2023-03-13T13:53:47;14.10;;;5.10;;
59938;SDS011;45801;51.810;19.444;2023-03-13T13:58:58;14.60;;;7.70;;
59938;SDS011;45801;51.810;19.444;2023-03-13T14:01:25;16.50;;;9.30;;
59938;SDS011;45801;51.810;19.444;2023-03-13T14:03:52;17.30;;;10.00;;
59938;SDS011;45801;51.810;19.444;2023-03-13T14:06:27;15.70;;;9.00;;
59938;SDS011;45801;51.810;19.444;2023-03-13T14:11:37;14.50;;;6.20;;
59938;SDS011;45801;51.810;19.444;2023-03-13T14:14:14;12.60;;;4.40;;
59938;SDS011;45801;51.810;19.444;2023-03-13T14:16:43;12.20;;;4.10;;
59938;SDS011;45801;51.810;19.444;2023-03-13T14:19:22;11.40;;;3.50;;
59938;SDS011;45801;51.810;19.444;2023-03-13T14:21:56;11.60;;;3.60;;
59938;SDS011;45801;51.810;19.444;2023-03-13T14:24:24;13.70;;;4.00;;
59938;SDS011;45801;51.810;19.444;2023-03-13T14:26:50;10.00;;;2.70;;
59938;SDS011;45801;51.810;19.444;2023-03-13T14:29:18;10.00;;;4.20;;
59938;SDS011;45801;51.810;19.444;2023-03-13T14:31:54;13.70;;;3.90;;
59938;SDS011;45801;51.810;19.444;2023-03-13T14:34:22;9.80;;;3.80;;
59938;SDS011;45801;51.810;19.444;2023-03-13T14:41:55;9.80;;;3.60;;
59938;SDS011;45801;51.810;19.444;2023-03-13T14:44:34;8.80;;;3.00;;
59938;SDS011;45801;51.810;19.444;2023-03-13T14:47:05;7.90;;;2.60;;
59938;SDS011;45801;51.810;19.444;2023-03-13T14:49:34;11.80;;;3.60;;
59938;SDS011;45801;51.810;19.444;2023-03-13T14:52:06;10.10;;;3.60;;
59938;SDS011;45801;51.810;19.444;2023-03-13T14:57:25;9.70;;;3.80;;
59938;SDS011;45801;51.810;19.444;2023-03-13T14:59:53;8.40;;;3.40;;
59938;SDS011;45801;51.810;19.444;2023-03-13T15:02:26;8.80;;;4.10;;
59938;SDS011;45801;51.810;19.444;2023-03-13T15:04:56;10.70;;;3.90;;
59938;SDS011;45801;51.810;19.444;2023-03-13T15:07:34;10.20;;;4.10;;
59938;SDS011;45801;51.810;19.444;2023-03-13T15:12:56;10.30;;;3.50;;
59938;SDS011;45801;51.810;19.444;2023-03-13T15:15:23;11.60;;;4.30;;
59938;SDS011;45801;51.810;19.444;2023-03-13T15:17:50;10.50;;;3.60;;
59938;SDS011;45801;51.810;19.444;2023-03-13T15:20:16;11.80;;;4.70;;
59938;SDS011;45801;51.810;19.444;2023-03-13T15:22:43;10.10;;;4.10;;
59938;SDS011;45801;51.810;19.444;2023-03-13T15:25:16;10.90;;;4.20;;
59938;SDS011;45801;51.810;19.444;2023-03-13T15:27:46;11.80;;;4.50;;
59938;SDS011;45801;51.810;19.444;2023-03-13T15:30:13;14.10;;;4.90;;
59938;SDS011;45801;51.810;19.444;2023-03-13T15:32:50;11.30;;;5.10;;
59938;SDS011;45801;51.810;19.444;2023-03-13T15:35:21;9.50;;;4.10;;
59938;SDS011;45801;51.810;19.444;2023-03-13T15:37:50;10.20;;;4.20;;
59938;SDS011;45801;51.810;19.444;2023-03-13T15:40:16;11.40;;;4.50;;
59938;SDS011;45801;51.810;19.444;2023-03-13T15:42:43;10.50;;;4.10;;
59938;SDS011;45801;51.810;19.444;2023-03-13T15:45:10;9.30;;;4.00;;
59938;SDS011;45801;51.810;19.444;2023-03-13T15:47:37;10.80;;;4.70;;
59938;SDS011;45801;51.810;19.444;2023-03-13T15:50:05;11.40;;;4.10;;
59938;SDS011;45801;51.810;19.444;2023-03-13T15:52:36;11.50;;;3.90;;
59938;SDS011;45801;51.810;19.444;2023-03-13T15:55:04;10.50;;;4.30;;
59938;SDS011;45801;51.810;19.444;2023-03-13T15:57:40;9.70;;;4.20;;
59938;SDS011;45801;51.810;19.444;2023-03-13T16:00:21;10.50;;;4.20;;
59938;SDS011;45801;51.810;19.444;2023-03-13T16:02:49;11.00;;;4.20;;
59938;SDS011;45801;51.810;19.444;2023-03-13T16:05:17;10.50;;;4.00;;
59938;SDS011;45801;51.810;19.444;2023-03-13T16:07:43;10.50;;;3.60;;
59938;SDS011;45801;51.810;19.444;2023-03-13T16:10:15;11.10;;;3.90;;
59938;SDS011;45801;51.810;19.444;2023-03-13T16:12:46;10.80;;;4.50;;
59938;SDS011;45801;51.810;19.444;2023-03-13T16:15:13;10.10;;;4.70;;
59938;SDS011;45801;51.810;19.444;2023-03-13T16:17:39;11.10;;;4.30;;
59938;SDS011;45801;51.810;19.444;2023-03-13T16:20:13;12.20;;;4.30;;
59938;SDS011;45801;51.810;19.444;2023-03-13T16:22:42;10.70;;;4.70;;
59938;SDS011;45801;51.810;19.444;2023-03-13T16:25:09;10.00;;;4.10;;
59938;SDS011;45801;51.810;19.444;2023-03-13T16:27:36;11.20;;;5.00;;
59938;SDS011;45801;51.810;19.444;2023-03-13T16:30:14;8.60;;;4.00;;
59938;SDS011;45801;51.810;19.444;2023-03-13T16:32:44;9.80;;;4.20;;
59938;SDS011;45801;51.810;19.444;2023-03-13T16:35:10;11.20;;;4.50;;
59938;SDS011;45801;51.810;19.444;2023-03-13T16:37:37;13.30;;;4.90;;
59938;SDS011;45801;51.810;19.444;2023-03-13T16:42:42;10.60;;;4.20;;
59938;SDS011;45801;51.810;19.444;2023-03-13T16:45:08;11.40;;;4.80;;
59938;SDS011;45801;51.810;19.444;2023-03-13T16:47:36;10.10;;;4.00;;